KOJ weather

Kagoshima Airport
Kagoshima, Kagoshima Prefecture, Japan

Public forecast

Using degrees Celsius for public forecast. Weather courtesy of forecast.io.

Current aviation weather report (METAR) for Kagoshima Airport

Retrieved 2020/01/19 01:00 UTC (28 minutes ago):

RJFK 190100Z 33005KT 9999 FEW005 BKN/// 07/05 Q1018 RMK 1ST005 A3008 VOLCANIC ASH CLOUD SE-S

Aviation forecast (TAF) for Kagoshima Airport

Retrieved 2020-01-19 00:30 UTC (58 minutes ago):

TAF RJFK 182306Z 1900/2006 27007KT 9999 FEW020 BKN040 BECMG 1903/1905 33013KT